Nearby METAR Reports

 

GCLP - Las Palmas/Gando, Spain
Distance from station: NE 26km
Updated: 28/02/2024 00:00
Mostly cloudy
Mostly cloudy
 Wind from N
Wind: N 46 km/h
Temperature: 18°C
Dew Point: 10°C
Humidity: 60%
Barometer: 1023 hPa
Clouds: Mostly cloudy
Visibility: 10 km
Cloud details: Mostly cloudy 1067 m
2024/02/28 00:00 GCLP 280000Z 01025KT 9999 BKN035 18/10 Q1023 NOSIG
GCTS - Tenerife Sur/Rei, Spain
Distance from station: WNW 102km
Updated: 28/02/2024 00:00
Few Clouds
Few Clouds
 Wind from NE
Wind: NE 28 km/h
Temperature: 18°C
Dew Point: 9°C
Humidity: 56%
Barometer: 1023 hPa
Clouds: Few Clouds
Visibility: 10 km
Cloud details: Few Clouds 762 m
2024/02/28 00:00 GCTS 280000Z 05015KT 9999 FEW025 18/09 Q1023 NOSIG
 
GCXO - Tenerife/Los Rod, Spain
Distance from station: NW 110km
Updated: 28/02/2024 00:00
Overcast
Overcast
 Wind from NNW
Wind: NNW 15 km/h
Temperature: 13°C
Dew Point: 9°C
Humidity: 77%
Barometer: 1026 hPa
Clouds: Overcast
Visibility: 10 km
Cloud details: Overcast 671 m
2024/02/28 00:00 GCXO 280000Z AUTO 34008KT 300V010 9999 OVC022 13/09 Q1026
GCGM - La Gomera Arpt, Spain
Distance from station: W 164km
Updated: 28/02/2024 00:00
Clear
Clear
 Wind from varies
Wind: varies 33 km/h, Gust: 61 km/h
Temperature: 17°C
Dew Point: 8°C
Humidity: 56%
Barometer: 1023 hPa
Summary: Clear
Visibility: greater than 10 km
2024/02/28 00:00 GCGM 280000Z AUTO VRB18G33KT CAVOK 17/08 Q1023 RMK R09/35016G26KT 280V070 ARP/01017G31KT 310V050
 
GCFV - Fuerteventura Ar, Spain
Distance from station: ENE 183km
Updated: 28/02/2024 00:00
Overcast
Overcast
 Wind from NNE
Wind: NNE 52 km/h
Temperature: 18°C
Dew Point: 9°C
Humidity: 56%
Barometer: 1022 hPa
Clouds: Overcast
Visibility: 10 km
Cloud details: Overcast 1341 m
2024/02/28 00:00 GCFV 280000Z AUTO 02028KT 9999 OVC044 18/09 Q1022
GCHI - Hierro Airport, Spain
Distance from station: W 226km
Updated: 28/02/2024 00:00
Partly cloudy
Partly cloudy
 Wind from NNE
Wind: NNE 43 km/h
Temperature: 19°C
Dew Point: 11°C
Humidity: 60%
Barometer: 1024 hPa
Clouds: Partly cloudy
Visibility: 10 km
Cloud details: Partly cloudy 1097 m
2024/02/28 00:00 GCHI 280000Z AUTO 03023KT 9999 SCT036 19/11 Q1024
 
GCLA - La Palma Airport, Spain
Distance from station: WNW 233km
Updated: 28/02/2024 00:00
Overcast
Overcast
 Wind from N
Wind: N 26 km/h
Temperature: 18°C
Dew Point: 9°C
Humidity: 56%
Barometer: 1026 hPa
Clouds: Overcast
Visibility: 10 km
Cloud details: Partly cloudy 1311 m
Overcast 1494 m
2024/02/28 00:00 GCLA 280000Z AUTO 35014KT 9999 SCT043 OVC049 18/09 Q1026
GCRR - Arrecife/Lanzaro, Spain
Distance from station: NE 234km
Updated: 28/02/2024 00:00
Mostly cloudy
Mostly cloudy
 Wind from NNE
Wind: NNE 44 km/h, Gust: 63 km/h
Temperature: 18°C
Dew Point: 9°C
Humidity: 56%
Barometer: 1022 hPa
Clouds: Mostly cloudy
Visibility: 10 km
Cloud details: Mostly cloudy 1219 m
2024/02/28 00:00 GCRR 280000Z 02024G34KT 9999 BKN040 18/09 Q1022
 
LPMA - Funchal/Madeira, Portugal
Distance from station: NNW 556km
Updated: 28/02/2024 00:00
Partly cloudy
Partly cloudy
 Wind from N
Wind: N 37 km/h
Temperature: 17°C
Dew Point: 8°C
Humidity: 56%
Barometer: 1029 hPa
Clouds: Partly cloudy
Visibility: 10 km
Cloud details: Partly cloudy 457 m
2024/02/28 00:00 LPMA 280000Z 01020KT 330V030 9999 SCT015 17/08 Q1029
LPPS - Porto Santo Isla, Portugal
Distance from station: N 594km
Updated: 28/02/2024 00:00
Partly cloudy
Partly cloudy
 Wind from NE
Wind: NE 20 km/h
Temperature: 17°C
Dew Point: 10°C
Humidity: 64%
Barometer: 1030 hPa
Clouds: Partly cloudy
Visibility: 10 km
Cloud details: Partly cloudy 457 m
Partly cloudy 914 m
2024/02/28 00:00 LPPS 280000Z 04011KT 360V080 9999 SCT015 SCT030 17/10 Q1030